Time;durP1;ratioP1;P1;durP2;ratioP2;P2;SDS_P1;SDS_P2;PMS_P1;PMS_P2;Temp;Humidity;BMP_temperature;BMP_pressure;BME280_temperature;BME280_humidity;BME280_pressure;Samples;Min_cycle;Max_cycle;Signal;HPM_P1;HPM_P2
2021/08/05 00:00:51;;;;;;;1.80;1.00;;;20.70;99.90;;;;;;5013786;28;20060;-61
2021/08/05 00:03:17;;;;;;;1.20;1.10;;;20.50;99.90;;;;;;5002919;28;20069;-63
2021/08/05 00:05:42;;;;;;;1.58;1.10;;;20.50;99.90;;;;;;5017711;28;20515;-63
2021/08/05 00:08:08;;;;;;;1.40;1.30;;;20.60;99.90;;;;;;5028943;28;20037;-63
2021/08/05 00:10:34;;;;;;;2.15;1.45;;;20.70;99.90;;;;;;5008813;28;20096;-62
2021/08/05 00:12:59;;;;;;;1.40;0.95;;;20.60;99.90;;;;;;5011485;28;20069;-63
2021/08/05 00:15:25;;;;;;;2.33;0.88;;;20.50;99.90;;;;;;5003810;28;21838;-62
2021/08/05 00:17:50;;;;;;;1.30;1.20;;;20.60;99.90;;;;;;5016042;28;20045;-63
2021/08/05 00:20:16;;;;;;;1.67;1.30;;;20.50;99.90;;;;;;5016019;28;20030;-63
2021/08/05 00:22:42;;;;;;;1.75;1.65;;;20.50;99.90;;;;;;5030166;28;20036;-62
2021/08/05 00:25:08;;;;;;;1.42;1.30;;;20.50;99.90;;;;;;5031950;28;20045;-63
2021/08/05 00:27:34;;;;;;;1.67;1.38;;;20.50;99.90;;;;;;5010486;28;20045;-63
2021/08/05 00:30:00;;;;;;;1.67;1.38;;;20.50;99.90;;;;;;5032494;28;20518;-63
2021/08/05 00:32:25;;;;;;;2.15;1.20;;;20.50;99.90;;;;;;5031281;28;20116;-63
2021/08/05 00:34:51;;;;;;;1.15;1.05;;;20.50;99.90;;;;;;5020996;28;20551;-63
2021/08/05 00:37:16;;;;;;;0.60;0.60;;;20.50;99.90;;;;;;5019158;28;20030;-63
2021/08/05 00:39:42;;;;;;;0.93;0.80;;;20.40;99.90;;;;;;5006389;28;20038;-63
2021/08/05 00:42:08;;;;;;;2.00;1.00;;;20.40;99.90;;;;;;5018804;28;20033;-63
2021/08/05 00:44:35;;;;;;;2.85;0.77;;;20.40;99.90;;;;;;5014558;28;20064;-63
2021/08/05 00:47:00;;;;;;;0.93;0.77;;;20.30;99.90;;;;;;5004240;28;20034;-63
2021/08/05 00:49:26;;;;;;;1.42;1.05;;;20.40;99.90;;;;;;5031583;28;20038;-62
2021/08/05 00:51:52;;;;;;;1.00;0.90;;;20.40;99.90;;;;;;5024122;28;20407;-62
2021/08/05 00:54:18;;;;;;;1.38;1.05;;;20.40;99.90;;;;;;5007993;28;20037;-63
2021/08/05 00:56:43;;;;;;;1.20;1.10;;;20.40;99.90;;;;;;5033567;28;20046;-63
2021/08/05 00:59:09;;;;;;;1.60;0.98;;;20.30;99.90;;;;;;5023895;28;20642;-63
2021/08/05 01:01:40;;;;;;;0.50;0.50;;;20.30;99.90;;;;;;5030230;28;20029;-63
2021/08/05 01:04:08;;;;;;;1.13;0.57;;;20.30;99.90;;;;;;5004215;28;20041;-63
2021/08/05 01:06:39;;;;;;;0.93;0.60;;;20.10;99.90;;;;;;5030178;28;20046;-63
2021/08/05 01:09:08;;;;;;;0.70;0.60;;;20.10;99.90;;;;;;5019703;28;20038;-63
2021/08/05 01:11:44;;;;;;;1.45;0.80;;;20.20;99.90;;;;;;5028153;28;20061;-63
2021/08/05 01:14:15;;;;;;;0.82;0.50;;;20.00;99.90;;;;;;5016544;28;20117;-63
2021/08/05 01:16:44;;;;;;;0.60;0.60;;;19.90;99.90;;;;;;5023988;28;20037;-63
2021/08/05 01:19:32;;;;;;;0.77;0.70;;;19.90;99.90;;;;;;5004021;28;20149;-63
2021/08/05 01:22:35;;;;;;;1.48;1.10;;;20.10;99.90;;;;;;5005485;28;20399;-63
2021/08/05 01:25:26;;;;;;;0.70;0.70;;;20.00;99.90;;;;;;4954695;28;20046;-63
2021/08/05 01:27:52;;;;;;;1.00;1.00;;;20.00;99.90;;;;;;5002248;28;20038;-62
2021/08/05 01:30:18;;;;;;;1.25;1.10;;;20.00;99.90;;;;;;5025588;28;20541;-63
2021/08/05 01:32:47;;;;;;;2.15;1.25;;;20.10;99.90;;;;;;5010434;28;20041;-63
2021/08/05 01:35:13;;;;;;;1.33;1.25;;;20.00;99.90;;;;;;5008053;28;20085;-63
2021/08/05 01:37:41;;;;;;;1.40;1.30;;;19.90;99.90;;;;;;5028048;28;20090;-64
2021/08/05 01:40:08;;;;;;;2.30;1.45;;;19.90;99.90;;;;;;5023624;28;20033;-63
2021/08/05 01:42:34;;;;;;;1.27;1.20;;;19.80;99.90;;;;;;5017334;28;20041;-63
2021/08/05 01:45:01;;;;;;;3.35;1.30;;;19.80;99.90;;;;;;5017857;28;20041;-62
2021/08/05 01:47:28;;;;;;;1.38;1.20;;;19.80;99.90;;;;;;5025381;28;20030;-63
2021/08/05 01:49:54;;;;;;;1.73;1.45;;;19.80;99.90;;;;;;5019289;28;20121;-62
2021/08/05 01:52:20;;;;;;;2.55;1.25;;;19.80;99.90;;;;;;5003286;28;20120;-63
2021/08/05 01:54:46;;;;;;;2.05;1.30;;;19.70;99.90;;;;;;5021658;28;20041;-63
2021/08/05 01:57:14;;;;;;;2.90;1.42;;;19.80;99.90;;;;;;5011552;28;20041;-63
2021/08/05 01:59:39;;;;;;;2.15;1.13;;;19.90;99.90;;;;;;5020147;28;20030;-63
2021/08/05 02:02:07;;;;;;;0.85;0.85;;;19.90;99.90;;;;;;5030182;28;20041;-63
2021/08/05 02:04:52;;;;;;;3.05;1.30;;;19.90;99.90;;;;;;5022864;28;20083;-63
2021/08/05 02:07:49;;;;;;;2.10;0.80;;;19.90;99.90;;;;;;5028617;28;20045;-63
2021/08/05 02:10:19;;;;;;;1.85;0.85;;;19.80;99.90;;;;;;4987497;28;20345;-63
2021/08/05 02:13:01;;;;;;;1.92;1.02;;;19.80;99.90;;;;;;5026159;28;20045;-62
2021/08/05 02:15:31;;;;;;;0.90;0.68;;;19.80;99.90;;;;;;4985344;28;20144;-62
2021/08/05 02:17:57;;;;;;;0.52;0.52;;;19.80;99.90;;;;;;5029509;28;20394;-62
2021/08/05 02:20:24;;;;;;;0.50;0.50;;;19.80;99.90;;;;;;5004544;28;20152;-61
2021/08/05 02:22:51;;;;;;;0.60;0.52;;;19.80;99.90;;;;;;5007627;28;20040;-62
2021/08/05 02:25:17;;;;;;;1.10;0.47;;;19.80;99.90;;;;;;5011080;28;20068;-63
2021/08/05 02:27:44;;;;;;;0.65;0.65;;;19.90;99.90;;;;;;5019865;28;20104;-61
2021/08/05 02:30:11;;;;;;;1.10;0.55;;;19.80;99.90;;;;;;5014085;28;20033;-62
2021/08/05 02:32:38;;;;;;;2.50;0.50;;;19.80;99.90;;;;;;5007692;28;20122;-62
2021/08/05 02:35:07;;;;;;;1.40;0.50;;;19.80;99.90;;;;;;5012636;28;20041;-62
2021/08/05 02:37:33;;;;;;;2.30;1.20;;;19.80;99.90;;;;;;5017521;28;20048;-62
2021/08/05 02:39:59;;;;;;;1.25;0.43;;;19.70;99.90;;;;;;5024767;28;20064;-62
2021/08/05 02:42:25;;;;;;;0.57;0.50;;;19.70;99.90;;;;;;5011236;28;20046;-62
2021/08/05 02:44:52;;;;;;;0.70;0.70;;;19.60;99.90;;;;;;5012622;28;20534;-62
2021/08/05 02:47:20;;;;;;;0.60;0.60;;;19.70;99.90;;;;;;5003892;28;20194;-63
2021/08/05 02:49:46;;;;;;;1.15;0.70;;;19.70;99.90;;;;;;5012748;28;20048;-62
2021/08/05 02:52:12;;;;;;;2.35;0.77;;;19.60;99.90;;;;;;5002161;28;20373;-62
2021/08/05 02:54:38;;;;;;;1.13;0.80;;;19.60;99.90;;;;;;5006655;28;20030;-61
2021/08/05 02:57:04;;;;;;;1.67;0.88;;;19.60;99.90;;;;;;5003086;28;20095;-61
2021/08/05 02:59:30;;;;;;;4.15;1.10;;;19.60;99.90;;;;;;5011898;28;20495;-62
2021/08/05 03:01:57;;;;;;;2.65;1.02;;;19.60;99.90;;;;;;5022686;28;21067;-61
2021/08/05 03:04:29;;;;;;;1.67;0.90;;;19.60;99.90;;;;;;5028130;28;20129;-62
2021/08/05 03:06:55;;;;;;;1.13;1.00;;;19.60;99.90;;;;;;5016967;28;20045;-62
2021/08/05 03:09:20;;;;;;;1.33;1.00;;;19.60;99.90;;;;;;5009292;28;20148;-62
2021/08/05 03:11:46;;;;;;;1.52;0.90;;;19.60;99.90;;;;;;5008483;28;20391;-61
2021/08/05 03:14:12;;;;;;;2.00;0.77;;;19.60;99.90;;;;;;5022587;28;20045;-61
2021/08/05 03:16:37;;;;;;;1.20;0.93;;;19.50;99.90;;;;;;5028051;28;20044;-62
2021/08/05 03:19:03;;;;;;;2.42;1.10;;;19.40;99.90;;;;;;5022437;28;20042;-61
2021/08/05 03:21:28;;;;;;;2.05;1.23;;;19.50;99.90;;;;;;5026903;28;20556;-62
2021/08/05 03:23:54;;;;;;;2.40;1.02;;;19.60;99.90;;;;;;5007905;28;20395;-62
2021/08/05 03:26:19;;;;;;;2.80;1.55;;;19.50;99.90;;;;;;5028059;28;20110;-62
2021/08/05 03:28:45;;;;;;;0.80;0.80;;;19.50;99.90;;;;;;5019444;28;20475;-62
2021/08/05 03:31:11;;;;;;;1.95;1.05;;;19.50;99.90;;;;;;5026290;28;20128;-62
2021/08/05 03:33:36;;;;;;;2.38;1.05;;;19.50;99.90;;;;;;5023644;28;20053;-62
2021/08/05 03:36:03;;;;;;;2.17;1.35;;;19.40;99.90;;;;;;5027270;28;20052;-61
2021/08/05 03:38:29;;;;;;;1.70;1.10;;;19.60;99.90;;;;;;5021513;28;20153;-62
2021/08/05 03:40:54;;;;;;;1.90;1.58;;;19.50;99.90;;;;;;5024849;28;20038;-62
2021/08/05 03:43:20;;;;;;;2.15;1.27;;;19.50;99.90;;;;;;5021786;28;20072;-63
2021/08/05 03:45:46;;;;;;;2.58;1.35;;;19.40;99.90;;;;;;5026113;28;20410;-63
2021/08/05 03:48:12;;;;;;;1.83;1.40;;;19.40;99.90;;;;;;5032883;28;20049;-63
2021/08/05 03:50:37;;;;;;;1.38;1.27;;;19.40;99.90;;;;;;5021570;28;20039;-62
2021/08/05 03:53:03;;;;;;;1.10;1.05;;;19.40;99.90;;;;;;5024639;28;20048;-62
2021/08/05 03:55:29;;;;;;;1.38;1.27;;;19.40;99.90;;;;;;5021545;28;20478;-61
2021/08/05 03:57:55;;;;;;;1.83;1.13;;;19.40;99.90;;;;;;5028224;28;20123;-62
2021/08/05 04:00:21;;;;;;;1.20;1.10;;;19.40;99.90;;;;;;5020680;28;20148;-62
2021/08/05 04:02:46;;;;;;;1.50;1.05;;;19.30;99.90;;;;;;5025820;28;20502;-63
2021/08/05 04:05:12;;;;;;;2.80;1.50;;;19.30;99.90;;;;;;5022877;28;20061;-62
2021/08/05 04:07:39;;;;;;;2.92;1.23;;;19.30;99.90;;;;;;5018954;28;20037;-63
2021/08/05 04:10:05;;;;;;;2.53;1.35;;;19.40;99.90;;;;;;4999209;28;20046;-62
2021/08/05 04:12:31;;;;;;;2.00;1.20;;;19.30;99.90;;;;;;5015151;28;20549;-62
2021/08/05 04:14:57;;;;;;;2.05;1.58;;;19.30;99.90;;;;;;5022186;28;20026;-62
2021/08/05 04:17:22;;;;;;;2.78;1.90;;;19.30;99.90;;;;;;5024224;28;20139;-61
2021/08/05 04:19:48;;;;;;;2.30;1.92;;;19.40;99.90;;;;;;5022475;28;20041;-62
2021/08/05 04:22:13;;;;;;;3.17;2.45;;;19.40;99.90;;;;;;5026914;28;20128;-62
2021/08/05 04:24:39;;;;;;;3.40;2.40;;;19.30;99.90;;;;;;5027527;28;20045;-62
2021/08/05 04:27:05;;;;;;;2.58;2.30;;;19.30;99.90;;;;;;5006835;28;20064;-62
2021/08/05 04:29:32;;;;;;;4.60;3.00;;;19.40;99.90;;;;;;5012060;28;20022;-62
2021/08/05 04:31:57;;;;;;;4.78;3.33;;;19.30;99.90;;;;;;5006001;28;20042;-62
2021/08/05 04:34:23;;;;;;;7.13;3.83;;;19.30;99.90;;;;;;5029163;28;20041;-62
2021/08/05 04:36:48;;;;;;;5.88;4.00;;;19.30;99.90;;;;;;5027603;28;20060;-62
2021/08/05 04:39:14;;;;;;;6.40;4.47;;;19.40;99.90;;;;;;5025593;28;20045;-62
2021/08/05 04:41:40;;;;;;;5.00;4.38;;;19.40;99.90;;;;;;5014692;28;20412;-62
2021/08/05 04:44:06;;;;;;;5.32;4.82;;;19.30;99.90;;;;;;5016706;28;20144;-63
2021/08/05 04:46:32;;;;;;;5.75;4.93;;;19.30;99.90;;;;;;5013933;28;20042;-62
2021/08/05 04:48:57;;;;;;;7.53;4.72;;;19.40;99.90;;;;;;5021135;28;20100;-63
2021/08/05 04:51:23;;;;;;;7.32;5.15;;;19.40;99.90;;;;;;5024671;28;20037;-61
2021/08/05 04:53:48;;;;;;;5.78;4.60;;;19.40;99.90;;;;;;5024040;28;20107;-62
2021/08/05 04:56:14;;;;;;;5.25;4.75;;;19.30;99.90;;;;;;5010202;28;20529;-63
2021/08/05 04:58:39;;;;;;;6.13;4.97;;;19.30;99.90;;;;;;5013184;28;20030;-63
2021/08/05 05:01:05;;;;;;;6.32;5.65;;;19.30;99.90;;;;;;5010446;28;20428;-62
2021/08/05 05:03:31;;;;;;;5.22;4.72;;;19.10;99.90;;;;;;5006636;28;20049;-62
2021/08/05 05:05:57;;;;;;;5.80;4.80;;;19.20;99.90;;;;;;5026724;28;20488;-62
2021/08/05 05:08:24;;;;;;;6.65;4.93;;;19.30;99.90;;;;;;5025838;28;20475;-62
2021/08/05 05:10:53;;;;;;;6.13;5.22;;;19.30;99.90;;;;;;5031871;28;20050;-62
2021/08/05 05:13:19;;;;;;;5.60;4.63;;;19.30;99.90;;;;;;5028818;28;20037;-63
2021/08/05 05:15:45;;;;;;;5.65;4.85;;;19.30;99.90;;;;;;5030379;28;20046;-62
2021/08/05 05:18:13;;;;;;;5.68;4.47;;;19.30;99.90;;;;;;5024905;28;20399;-63
2021/08/05 05:20:39;;;;;;;5.53;4.90;;;19.30;99.90;;;;;;5031897;28;20057;-62
2021/08/05 05:23:06;;;;;;;5.97;4.88;;;19.40;99.90;;;;;;5025966;28;20111;-63
2021/08/05 05:25:39;;;;;;;5.30;4.57;;;19.30;99.90;;;;;;5027995;28;20115;-62
2021/08/05 05:28:05;;;;;;;3.95;3.58;;;19.40;99.90;;;;;;5022775;28;20099;-62
2021/08/05 05:30:31;;;;;;;7.82;4.32;;;19.40;99.90;;;;;;5029464;28;20033;-62
2021/08/05 05:32:57;;;;;;;5.43;4.75;;;19.40;99.90;;;;;;5023056;28;20518;-62
2021/08/05 05:35:23;;;;;;;6.28;4.50;;;19.50;99.90;;;;;;5028804;28;20404;-61
2021/08/05 05:37:51;;;;;;;5.22;4.72;;;19.60;99.90;;;;;;5025561;28;20041;-62
2021/08/05 05:40:17;;;;;;;5.57;5.07;;;19.60;99.90;;;;;;5028331;28;20036;-62
2021/08/05 05:42:43;;;;;;;5.45;4.40;;;19.50;99.90;;;;;;5027715;28;20049;-62
2021/08/05 05:45:11;;;;;;;5.20;4.38;;;19.50;99.90;;;;;;5004886;28;20064;-61
2021/08/05 05:47:36;;;;;;;5.03;4.57;;;19.60;99.90;;;;;;5027523;28;20022;-61
2021/08/05 05:50:03;;;;;;;5.18;4.18;;;19.60;99.90;;;;;;5004976;28;20459;-61
2021/08/05 05:52:29;;;;;;;4.60;3.70;;;19.70;99.90;;;;;;5009039;28;20065;-61
2021/08/05 05:54:55;;;;;;;5.82;4.22;;;19.70;99.90;;;;;;5019620;28;20450;-62
2021/08/05 05:57:21;;;;;;;4.57;4.10;;;19.80;99.90;;;;;;5026028;28;20038;-62
2021/08/05 05:59:46;;;;;;;4.50;4.07;;;19.80;99.90;;;;;;5012967;28;20045;-62
2021/08/05 06:02:12;;;;;;;5.93;4.30;;;19.90;99.90;;;;;;5028419;28;20075;-62
2021/08/05 06:04:37;;;;;;;5.65;4.10;;;19.90;99.90;;;;;;5028207;28;20450;-62
2021/08/05 06:07:03;;;;;;;6.53;4.03;;;19.90;99.90;;;;;;5010879;28;20133;-62
2021/08/05 06:09:29;;;;;;;5.50;3.95;;;19.90;99.90;;;;;;5024671;28;20038;-62
2021/08/05 06:11:54;;;;;;;6.53;4.55;;;19.90;99.90;;;;;;5024516;28;20218;-62
2021/08/05 06:14:20;;;;;;;5.50;3.47;;;19.90;99.90;;;;;;5008359;28;20085;-62
2021/08/05 06:16:46;;;;;;;8.75;3.92;;;20.00;99.90;;;;;;5015750;28;20046;-62
2021/08/05 06:19:12;;;;;;;6.28;3.58;;;20.00;99.90;;;;;;5013657;28;20026;-62
2021/08/05 06:21:38;;;;;;;10.65;4.50;;;20.00;99.90;;;;;;5005024;28;20034;-62
2021/08/05 06:24:04;;;;;;;7.93;3.90;;;20.00;99.90;;;;;;5029068;28;20033;-62
2021/08/05 06:26:30;;;;;;;6.90;3.75;;;20.10;99.90;;;;;;5023707;28;20435;-62
2021/08/05 06:28:55;;;;;;;6.53;3.80;;;20.10;99.90;;;;;;5026648;28;20092;-61
2021/08/05 06:31:21;;;;;;;4.05;3.75;;;20.20;99.90;;;;;;5017221;28;20045;-62
2021/08/05 06:33:50;;;;;;;8.10;4.13;;;20.30;99.90;;;;;;5026801;28;20065;-62
2021/08/05 06:36:17;;;;;;;7.40;4.53;;;20.30;99.90;;;;;;5015100;28;20131;-62
2021/08/05 06:38:42;;;;;;;5.60;4.60;;;20.40;99.90;;;;;;5027947;28;20071;-62
2021/08/05 06:41:08;;;;;;;6.22;4.13;;;20.40;99.90;;;;;;5023073;28;20551;-61
2021/08/05 06:43:34;;;;;;;6.10;4.82;;;20.40;99.90;;;;;;5012138;28;20494;-62
2021/08/05 06:45:59;;;;;;;5.07;3.90;;;20.40;99.90;;;;;;5022267;28;20048;-62
2021/08/05 06:48:25;;;;;;;7.65;4.93;;;20.60;99.90;;;;;;5028526;28;20364;-61
2021/08/05 06:50:51;;;;;;;4.90;4.30;;;20.60;99.90;;;;;;5018496;28;20042;-63
2021/08/05 06:53:16;;;;;;;7.05;4.55;;;20.70;99.90;;;;;;5024254;28;20064;-63
2021/08/05 06:55:42;;;;;;;3.58;3.28;;;20.80;99.90;;;;;;5019125;28;20535;-62
2021/08/05 06:58:08;;;;;;;5.78;3.38;;;20.80;99.90;;;;;;5022998;28;20403;-62
2021/08/05 07:00:33;;;;;;;4.47;3.30;;;20.80;99.90;;;;;;5024299;28;20045;-63
2021/08/05 07:02:59;;;;;;;3.90;3.50;;;21.00;99.90;;;;;;4990387;28;20395;-62
2021/08/05 07:05:25;;;;;;;3.13;2.92;;;21.00;99.90;;;;;;5025448;28;20053;-61
2021/08/05 07:07:54;;;;;;;6.05;3.25;;;21.00;99.90;;;;;;5018540;28;20450;-62
2021/08/05 07:10:21;;;;;;;3.13;2.85;;;21.10;99.90;;;;;;5011501;28;20041;-62
2021/08/05 07:12:46;;;;;;;3.80;3.08;;;21.10;99.90;;;;;;5023889;28;20045;-62
2021/08/05 07:15:12;;;;;;;3.78;2.88;;;21.10;99.90;;;;;;5027770;28;20115;-62
2021/08/05 07:17:40;;;;;;;3.67;3.38;;;21.10;99.90;;;;;;5023438;28;20108;-62
2021/08/05 07:20:07;;;;;;;4.25;2.97;;;21.10;99.90;;;;;;5026807;28;20149;-62
2021/08/05 07:22:32;;;;;;;4.93;3.60;;;21.10;99.90;;;;;;5010086;28;20026;-62
2021/08/05 07:24:58;;;;;;;5.53;3.67;;;21.20;99.90;;;;;;5006522;28;20561;-62
2021/08/05 07:27:24;;;;;;;3.63;3.40;;;21.20;99.90;;;;;;5020593;28;20049;-64
2021/08/05 07:29:49;;;;;;;7.00;3.83;;;21.20;99.90;;;;;;5025313;28;20049;-63
2021/08/05 07:32:15;;;;;;;3.70;3.38;;;21.20;99.90;;;;;;5016550;28;20037;-63
2021/08/05 07:34:41;;;;;;;3.58;3.28;;;21.20;99.90;;;;;;5020901;28;20106;-63
2021/08/05 07:37:06;;;;;;;4.38;3.97;;;21.30;99.90;;;;;;5023868;28;20040;-63
2021/08/05 07:39:33;;;;;;;6.53;3.65;;;21.20;99.90;;;;;;5005862;28;20026;-63
2021/08/05 07:41:58;;;;;;;4.80;3.58;;;21.40;99.90;;;;;;5021963;28;20475;-63
2021/08/05 07:44:24;;;;;;;4.35;3.88;;;21.40;99.90;;;;;;5018776;28;20048;-63
2021/08/05 07:46:50;;;;;;;4.75;3.45;;;21.40;99.90;;;;;;5025730;28;20375;-63
2021/08/05 07:49:16;;;;;;;5.60;4.00;;;21.50;99.90;;;;;;5022184;28;20108;-64
2021/08/05 07:51:42;;;;;;;3.97;3.65;;;21.60;99.90;;;;;;5005589;28;20179;-63
2021/08/05 07:54:07;;;;;;;3.75;3.42;;;21.70;99.90;;;;;;5011228;28;20037;-63
2021/08/05 07:56:33;;;;;;;4.75;4.35;;;21.70;99.90;;;;;;5005979;28;20399;-63
2021/08/05 07:58:58;;;;;;;4.47;4.07;;;21.80;99.90;;;;;;5007195;28;20056;-63
2021/08/05 08:01:24;;;;;;;3.70;3.40;;;21.80;99.90;;;;;;5025555;28;20084;-62
2021/08/05 08:03:50;;;;;;;3.95;3.42;;;21.90;99.90;;;;;;5023240;28;20053;-63
2021/08/05 08:06:16;;;;;;;4.13;3.67;;;22.00;99.90;;;;;;5009895;28;20038;-64
2021/08/05 08:08:41;;;;;;;4.20;3.08;;;22.10;99.90;;;;;;5021229;28;20052;-64
2021/08/05 08:11:07;;;;;;;4.82;3.33;;;22.20;99.90;;;;;;5026440;28;20120;-64
2021/08/05 08:13:33;;;;;;;4.13;3.50;;;22.30;99.90;;;;;;5012815;28;20043;-63
2021/08/05 08:15:59;;;;;;;5.25;4.25;;;22.40;99.90;;;;;;5007358;28;20112;-63
2021/08/05 08:18:25;;;;;;;4.20;3.88;;;22.30;99.90;;;;;;5018134;28;20036;-63
2021/08/05 08:20:56;;;;;;;4.10;3.60;;;22.40;99.90;;;;;;5003625;28;20037;-64
2021/08/05 08:23:23;;;;;;;3.83;3.50;;;22.40;99.90;;;;;;5011686;28;20124;-64
2021/08/05 08:25:49;;;;;;;4.55;3.75;;;22.50;99.90;;;;;;5008293;28;20057;-63
2021/08/05 08:28:14;;;;;;;6.85;4.32;;;22.50;99.90;;;;;;5014776;28;20438;-63
2021/08/05 08:30:40;;;;;;;4.78;3.55;;;22.50;99.90;;;;;;5024473;28;20060;-63
2021/08/05 08:33:06;;;;;;;5.28;3.88;;;22.60;99.90;;;;;;5028273;28;20049;-63
2021/08/05 08:35:32;;;;;;;4.35;3.95;;;22.60;99.90;;;;;;5022640;28;20041;-63
2021/08/05 08:37:58;;;;;;;5.00;3.80;;;22.60;99.90;;;;;;5013058;28;20046;-63
2021/08/05 08:40:23;;;;;;;5.50;4.03;;;22.70;99.90;;;;;;5001898;28;20034;-62
2021/08/05 08:42:49;;;;;;;5.47;4.20;;;22.70;99.90;;;;;;5011563;28;20048;-64
2021/08/05 08:45:15;;;;;;;4.30;3.95;;;22.70;99.90;;;;;;5021461;28;20103;-64
2021/08/05 08:47:46;;;;;;;5.82;3.88;;;22.70;99.90;;;;;;5023517;28;20128;-64
2021/08/05 08:50:12;;;;;;;5.93;3.67;;;22.80;99.90;;;;;;5019493;28;20042;-64
2021/08/05 08:52:41;;;;;;;3.83;3.47;;;22.80;99.90;;;;;;5029064;28;20033;-64
2021/08/05 08:55:08;;;;;;;4.05;3.60;;;22.80;99.90;;;;;;5014885;28;20057;-64
2021/08/05 08:57:35;;;;;;;3.67;2.85;;;22.90;99.90;;;;;;5008321;28;20056;-64
2021/08/05 09:00:03;;;;;;;6.85;3.58;;;22.90;99.90;;;;;;5027623;28;20034;-64
2021/08/05 09:05:51;;;;;;;4.95;3.38;;;23.00;99.90;;;;;;4986226;28;20167;-65
2021/08/05 09:08:17;;;;;;;3.45;3.20;;;23.00;99.90;;;;;;5027632;28;20037;-64
2021/08/05 09:10:43;;;;;;;5.03;3.80;;;23.10;99.90;;;;;;5029185;28;20156;-64
2021/08/05 09:13:09;;;;;;;3.58;3.00;;;23.10;99.90;;;;;;5024337;28;20175;-64
2021/08/05 09:15:38;;;;;;;5.18;3.38;;;23.20;99.90;;;;;;5015774;28;20060;-64
2021/08/05 09:18:24;;;;;;;3.60;2.85;;;23.20;99.90;;;;;;5005708;28;20114;-64
2021/08/05 09:21:15;;;;;;;3.35;2.38;;;23.30;99.90;;;;;;5018114;28;20041;-64
2021/08/05 09:23:49;;;;;;;5.18;3.58;;;23.40;99.90;;;;;;4986366;28;20049;-64
2021/08/05 09:26:23;;;;;;;3.28;2.97;;;23.40;99.90;;;;;;5013474;28;20483;-64
2021/08/05 09:29:13;;;;;;;3.83;2.90;;;23.40;99.90;;;;;;5018110;28;20053;-64
2021/08/05 09:31:49;;;;;;;6.15;3.20;;;23.40;99.90;;;;;;4997207;28;20453;-64
2021/08/05 09:34:22;;;;;;;3.78;3.10;;;23.50;99.90;;;;;;5003485;28;20033;-64
2021/08/05 09:36:58;;;;;;;6.10;3.08;;;23.70;99.90;;;;;;5023786;28;20041;-64
2021/08/05 09:39:26;;;;;;;3.35;3.05;;;23.60;99.90;;;;;;5019946;28;20132;-64
2021/08/05 09:42:05;;;;;;;3.70;2.65;;;23.70;99.90;;;;;;5023089;28;20554;-64
2021/08/05 09:44:37;;;;;;;5.22;3.00;;;23.80;99.90;;;;;;4993997;28;20102;-64
2021/08/05 09:47:10;;;;;;;5.20;2.80;;;23.90;99.90;;;;;;5025290;28;20056;-64
2021/08/05 09:49:50;;;;;;;4.65;3.17;;;24.00;99.90;;;;;;5018335;28;20091;-64
2021/08/05 09:52:25;;;;;;;2.92;2.72;;;24.00;99.90;;;;;;4988113;28;20375;-64
2021/08/05 09:54:52;;;;;;;2.72;2.53;;;24.10;99.90;;;;;;4999223;28;20510;-64
2021/08/05 09:57:27;;;;;;;3.33;3.03;;;24.20;99.90;;;;;;5004289;28;20181;-64
2021/08/05 10:00:07;;;;;;;4.30;3.30;;;24.20;99.90;;;;;;5002325;28;20042;-64
2021/08/05 10:02:46;;;;;;;3.20;3.00;;;24.20;99.90;;;;;;4976390;28;20624;-64
2021/08/05 10:05:17;;;;;;;3.00;2.80;;;24.40;99.90;;;;;;5003256;28;20076;-64
2021/08/05 10:08:01;;;;;;;13.82;5.30;;;24.40;99.90;;;;;;5023388;28;20160;-64
2021/08/05 10:10:47;;;;;;;3.55;3.25;;;24.50;99.90;;;;;;5017533;28;20075;-64
2021/08/05 10:13:13;;;;;;;4.10;3.70;;;24.60;99.90;;;;;;5022865;28;20068;-64
2021/08/05 10:15:50;;;;;;;4.47;3.10;;;24.60;99.90;;;;;;5022165;28;20068;-64
2021/08/05 10:18:17;;;;;;;4.28;3.88;;;24.70;99.90;;;;;;5033270;28;20052;-64
2021/08/05 10:20:43;;;;;;;3.97;3.38;;;24.80;99.90;;;;;;5004137;28;20045;-65
2021/08/05 10:23:10;;;;;;;4.25;3.85;;;24.80;99.90;;;;;;4990678;28;20570;-65
2021/08/05 10:25:37;;;;;;;3.50;3.30;;;25.10;99.90;;;;;;4996823;28;20049;-64
2021/08/05 10:28:03;;;;;;;5.60;3.83;;;25.10;99.90;;;;;;5005482;28;20038;-64
2021/08/05 10:30:30;;;;;;;6.40;4.70;;;25.10;99.90;;;;;;5016890;28;20030;-64
2021/08/05 10:32:56;;;;;;;3.85;3.45;;;25.30;99.90;;;;;;5012574;28;20042;-64
2021/08/05 10:35:23;;;;;;;3.80;3.22;;;25.20;99.90;;;;;;5017800;28;20044;-64
2021/08/05 10:37:49;;;;;;;3.50;3.20;;;25.20;99.90;;;;;;4996109;28;20089;-65
2021/08/05 10:40:15;;;;;;;4.57;3.20;;;25.20;99.90;;;;;;5016997;28;20526;-64
2021/08/05 10:42:46;;;;;;;5.10;3.30;;;25.30;99.90;;;;;;5026264;28;20041;-64
2021/08/05 10:45:13;;;;;;;5.03;3.30;;;25.40;99.90;;;;;;5022596;28;20141;-64
2021/08/05 10:47:40;;;;;;;3.42;3.22;;;25.50;99.90;;;;;;5027189;28;20037;-64
2021/08/05 10:50:13;;;;;;;3.83;3.40;;;25.60;99.90;;;;;;5021605;28;20057;-65
2021/08/05 10:52:48;;;;;;;4.10;3.27;;;25.60;99.90;;;;;;5011635;28;20549;-64
2021/08/05 10:55:16;;;;;;;2.95;2.65;;;25.70;99.90;;;;;;5021302;28;20087;-65
2021/08/05 10:57:43;;;;;;;2.78;2.53;;;25.80;99.90;;;;;;5021667;28;20042;-64
2021/08/05 11:00:13;;;;;;;6.53;3.22;;;25.90;99.90;;;;;;5022184;28;20041;-64
2021/08/05 11:02:56;;;;;;;3.17;2.92;;;26.10;99.90;;;;;;5024734;28;20487;-64
2021/08/05 11:05:21;;;;;;;4.05;3.63;;;26.20;99.90;;;;;;5019877;28;20041;-64
2021/08/05 11:07:48;;;;;;;5.18;4.65;;;26.20;99.90;;;;;;5024184;28;20521;-64
2021/08/05 11:10:14;;;;;;;4.32;3.63;;;26.30;99.90;;;;;;5025901;28;20033;-64
2021/08/05 11:12:45;;;;;;;3.92;3.50;;;26.50;99.90;;;;;;5022215;28;20069;-64
2021/08/05 11:15:26;;;;;;;3.33;2.90;;;26.50;99.90;;;;;;5030117;28;20044;-64
2021/08/05 11:18:24;;;;;;;3.63;3.00;;;26.70;99.90;;;;;;5020151;28;20049;-64
2021/08/05 11:20:50;;;;;;;3.38;3.00;;;26.80;99.90;;;;;;4980019;28;20041;-64
2021/08/05 11:23:24;;;;;;;4.07;3.35;;;27.00;99.90;;;;;;5015408;28;20034;-64
2021/08/05 11:25:51;;;;;;;2.95;2.65;;;27.50;99.90;;;;;;5010861;28;20050;-64
2021/08/05 11:28:27;;;;;;;3.70;2.97;;;27.70;99.90;;;;;;4998035;28;20040;-64
2021/08/05 11:31:05;;;;;;;6.78;2.50;;;28.30;95.60;;;;;;5022579;28;20029;-65
2021/08/05 11:33:36;;;;;;;2.72;2.53;;;28.60;91.90;;;;;;4974372;28;20125;-64
2021/08/05 11:36:19;;;;;;;2.60;2.45;;;28.90;89.70;;;;;;5000795;28;20042;-64
2021/08/05 11:39:11;;;;;;;2.20;2.10;;;29.00;91.40;;;;;;4995930;28;20637;-65
2021/08/05 11:41:55;;;;;;;2.15;2.05;;;29.20;85.10;;;;;;4977313;28;20053;-64
2021/08/05 11:44:21;;;;;;;2.53;2.33;;;29.20;90.10;;;;;;5008679;28;20130;-65
2021/08/05 11:47:08;;;;;;;2.75;2.08;;;29.30;81.00;;;;;;5020900;28;20120;-65
2021/08/05 11:49:40;;;;;;;2.92;2.47;;;29.50;75.80;;;;;;4982071;28;20084;-64
2021/08/05 11:52:13;;;;;;;3.47;2.38;;;29.70;77.80;;;;;;5003745;28;20049;-64
2021/08/05 11:54:41;;;;;;;1.95;1.52;;;30.00;72.90;;;;;;5017406;28;20037;-64
2021/08/05 11:57:09;;;;;;;3.00;1.90;;;30.80;65.40;;;;;;5021961;28;20480;-64
2021/08/05 11:59:35;;;;;;;2.17;2.00;;;32.00;64.50;;;;;;5014654;28;20068;-64
2021/08/05 12:02:05;;;;;;;2.47;2.28;;;31.30;63.80;;;;;;5026887;28;20045;-64
2021/08/05 12:04:31;;;;;;;2.95;2.20;;;31.00;65.40;;;;;;4994096;28;20050;-64
2021/08/05 12:07:29;;;;;;;2.67;2.47;;;30.70;65.30;;;;;;5016636;28;20072;-64
2021/08/05 12:10:01;;;;;;;3.83;2.13;;;30.90;63.00;;;;;;5003925;28;20084;-64
2021/08/05 12:12:29;;;;;;;3.42;2.40;;;31.10;59.70;;;;;;5010392;28;20037;-64
2021/08/05 12:14:58;;;;;;;2.05;1.95;;;31.20;61.00;;;;;;4996433;28;20041;-63
2021/08/05 12:17:32;;;;;;;2.90;2.53;;;31.40;61.30;;;;;;5024045;28;20039;-65
2021/08/05 12:19:58;;;;;;;4.93;2.22;;;31.40;59.70;;;;;;5006301;28;20065;-64
2021/08/05 12:22:32;;;;;;;1.70;1.65;;;32.00;60.20;;;;;;5023804;28;20037;-65
2021/08/05 12:25:02;;;;;;;3.38;2.00;;;;;;;;;;5020737;28;20045;-64
2021/08/05 12:27:29;;;;;;;2.50;1.80;;;32.10;58.80;;;;;;5012410;28;20516;-64
2021/08/05 12:30:00;;;;;;;4.05;2.17;;;32.30;56.60;;;;;;5001858;28;20040;-64
2021/08/05 12:32:26;;;;;;;3.70;2.05;;;33.00;47.10;;;;;;5002732;28;20595;-64
2021/08/05 12:34:52;;;;;;;3.83;1.85;;;33.80;46.80;;;;;;4996140;28;20160;-64
2021/08/05 12:37:17;;;;;;;2.10;2.00;;;33.90;57.40;;;;;;5004720;28;20438;-65
2021/08/05 12:39:43;;;;;;;1.85;1.75;;;;;;;;;;5015959;28;20045;-65
2021/08/05 12:42:09;;;;;;;1.95;1.80;;;33.50;43.30;;;;;;5021198;28;20040;-64
2021/08/05 12:44:36;;;;;;;2.20;1.60;;;34.40;44.80;;;;;;5016512;28;20053;-65
2021/08/05 12:47:04;;;;;;;2.00;1.90;;;34.60;40.70;;;;;;5021944;28;20049;-65
2021/08/05 12:49:32;;;;;;;2.03;1.92;;;36.10;51.40;;;;;;5010410;28;20046;-65
2021/08/05 12:51:59;;;;;;;2.20;1.90;;;;;;;;;;4991594;28;20076;-65
2021/08/05 12:54:25;;;;;;;1.77;1.67;;;39.10;40.90;;;;;;5006913;28;20076;-60
2021/08/05 12:56:56;;;;;;;2.80;2.15;;;38.80;33.10;;;;;;5022581;28;20095;-65